sensor_id;sensor_type;location;lat;lon;timestamp;temperature;humidity
78461;SHT31;67755;51.986;5.696;2023-05-18T00:01:05;13.3;45.6
78461;SHT31;67755;51.986;5.696;2023-05-18T00:03:35;13.2;45.8
78461;SHT31;67755;51.986;5.696;2023-05-18T00:06:07;13.2;46.0
78461;SHT31;67755;51.986;5.696;2023-05-18T00:08:37;13.2;45.8
78461;SHT31;67755;51.986;5.696;2023-05-18T00:11:06;13.1;46.1
78461;SHT31;67755;51.986;5.696;2023-05-18T00:13:36;13.1;46.0
78461;SHT31;67755;51.986;5.696;2023-05-18T00:16:06;13.1;45.2
78461;SHT31;67755;51.986;5.696;2023-05-18T00:18:36;13.1;45.8
78461;SHT31;67755;51.986;5.696;2023-05-18T00:21:05;13.0;45.9
78461;SHT31;67755;51.986;5.696;2023-05-18T00:23:35;13.0;46.2
78461;SHT31;67755;51.986;5.696;2023-05-18T00:26:05;13.0;46.2
78461;SHT31;67755;51.986;5.696;2023-05-18T00:28:35;12.9;46.4
78461;SHT31;67755;51.986;5.696;2023-05-18T00:31:04;12.9;46.3
78461;SHT31;67755;51.986;5.696;2023-05-18T00:33:34;12.9;46.3
78461;SHT31;67755;51.986;5.696;2023-05-18T00:36:03;12.9;46.7
78461;SHT31;67755;51.986;5.696;2023-05-18T00:38:33;12.9;46.8
78461;SHT31;67755;51.986;5.696;2023-05-18T00:41:03;12.8;46.7
78461;SHT31;67755;51.986;5.696;2023-05-18T00:43:32;12.8;46.6
78461;SHT31;67755;51.986;5.696;2023-05-18T00:46:02;12.8;46.5
78461;SHT31;67755;51.986;5.696;2023-05-18T00:48:32;12.8;46.6
78461;SHT31;67755;51.986;5.696;2023-05-18T00:51:01;12.8;46.4
78461;SHT31;67755;51.986;5.696;2023-05-18T00:53:32;12.8;46.8
78461;SHT31;67755;51.986;5.696;2023-05-18T00:56:03;12.7;46.3
78461;SHT31;67755;51.986;5.696;2023-05-18T00:58:33;12.7;46.9
78461;SHT31;67755;51.986;5.696;2023-05-18T01:01:03;12.7;46.9
78461;SHT31;67755;51.986;5.696;2023-05-18T01:03:35;12.7;46.3
78461;SHT31;67755;51.986;5.696;2023-05-18T01:06:07;12.6;47.0
78461;SHT31;67755;51.986;5.696;2023-05-18T01:08:41;12.6;46.9
78461;SHT31;67755;51.986;5.696;2023-05-18T01:11:20;12.6;46.8
78461;SHT31;67755;51.986;5.696;2023-05-18T01:14:00;12.6;46.9
78461;SHT31;67755;51.986;5.696;2023-05-18T01:16:41;12.6;47.1
78461;SHT31;67755;51.986;5.696;2023-05-18T01:19:27;12.5;47.7
78461;SHT31;67755;51.986;5.696;2023-05-18T01:22:06;12.5;47.0
78461;SHT31;67755;51.986;5.696;2023-05-18T01:24:46;12.5;46.9
78461;SHT31;67755;51.986;5.696;2023-05-18T01:27:21;12.5;46.9
78461;SHT31;67755;51.986;5.696;2023-05-18T01:29:55;12.5;47.3
78461;SHT31;67755;51.986;5.696;2023-05-18T01:32:25;12.4;47.6
78461;SHT31;67755;51.986;5.696;2023-05-18T01:34:55;12.4;47.5
78461;SHT31;67755;51.986;5.696;2023-05-18T01:37:24;12.4;47.6
78461;SHT31;67755;51.986;5.696;2023-05-18T01:39:54;12.4;47.2
78461;SHT31;67755;51.986;5.696;2023-05-18T01:42:27;12.4;47.7
78461;SHT31;67755;51.986;5.696;2023-05-18T01:45:02;12.4;47.4
78461;SHT31;67755;51.986;5.696;2023-05-18T01:47:36;12.4;47.7
78461;SHT31;67755;51.986;5.696;2023-05-18T01:50:11;12.3;47.8
78461;SHT31;67755;51.986;5.696;2023-05-18T01:52:46;12.3;47.5
78461;SHT31;67755;51.986;5.696;2023-05-18T01:55:18;12.3;47.6
78461;SHT31;67755;51.986;5.696;2023-05-18T01:57:51;12.3;47.4
78461;SHT31;67755;51.986;5.696;2023-05-18T02:00:22;12.3;47.8
78461;SHT31;67755;51.986;5.696;2023-05-18T02:02:52;12.3;47.8
78461;SHT31;67755;51.986;5.696;2023-05-18T02:05:24;12.3;48.1
78461;SHT31;67755;51.986;5.696;2023-05-18T02:07:54;12.2;47.7
78461;SHT31;67755;51.986;5.696;2023-05-18T02:10:24;12.2;48.0
78461;SHT31;67755;51.986;5.696;2023-05-18T02:12:54;12.2;48.3
78461;SHT31;67755;51.986;5.696;2023-05-18T02:15:23;12.2;47.9
78461;SHT31;67755;51.986;5.696;2023-05-18T02:17:53;12.2;47.9
78461;SHT31;67755;51.986;5.696;2023-05-18T02:20:24;12.2;47.5
78461;SHT31;67755;51.986;5.696;2023-05-18T02:22:59;12.2;48.4
78461;SHT31;67755;51.986;5.696;2023-05-18T02:25:28;12.2;48.1
78461;SHT31;67755;51.986;5.696;2023-05-18T02:27:58;12.2;48.1
78461;SHT31;67755;51.986;5.696;2023-05-18T02:30:27;12.1;48.1
78461;SHT31;67755;51.986;5.696;2023-05-18T02:32:59;12.1;48.4
78461;SHT31;67755;51.986;5.696;2023-05-18T02:35:30;12.1;48.6
78461;SHT31;67755;51.986;5.696;2023-05-18T02:38:00;12.1;48.3
78461;SHT31;67755;51.986;5.696;2023-05-18T02:40:30;12.1;48.3
78461;SHT31;67755;51.986;5.696;2023-05-18T02:43:00;12.1;48.2
78461;SHT31;67755;51.986;5.696;2023-05-18T02:45:29;12.1;48.3
78461;SHT31;67755;51.986;5.696;2023-05-18T02:47:59;12.1;48.4
78461;SHT31;67755;51.986;5.696;2023-05-18T02:50:28;12.1;48.3
78461;SHT31;67755;51.986;5.696;2023-05-18T02:52:58;12.1;48.4
78461;SHT31;67755;51.986;5.696;2023-05-18T02:55:27;12.1;48.7
78461;SHT31;67755;51.986;5.696;2023-05-18T02:57:57;12.1;48.4
78461;SHT31;67755;51.986;5.696;2023-05-18T03:00:27;12.1;48.5
78461;SHT31;67755;51.986;5.696;2023-05-18T03:02:58;12.0;48.4
78461;SHT31;67755;51.986;5.696;2023-05-18T03:05:29;12.0;48.7
78461;SHT31;67755;51.986;5.696;2023-05-18T03:07:58;12.0;48.6
78461;SHT31;67755;51.986;5.696;2023-05-18T03:10:28;12.0;48.3
78461;SHT31;67755;51.986;5.696;2023-05-18T03:12:58;12.0;48.5
78461;SHT31;67755;51.986;5.696;2023-05-18T03:15:27;12.0;48.6
78461;SHT31;67755;51.986;5.696;2023-05-18T03:18:00;12.0;48.6
78461;SHT31;67755;51.986;5.696;2023-05-18T03:20:30;12.0;48.5
78461;SHT31;67755;51.986;5.696;2023-05-18T03:23:04;12.0;48.6
78461;SHT31;67755;51.986;5.696;2023-05-18T03:25:34;12.0;48.6
78461;SHT31;67755;51.986;5.696;2023-05-18T03:28:03;12.0;48.1
78461;SHT31;67755;51.986;5.696;2023-05-18T03:30:33;12.0;48.0
78461;SHT31;67755;51.986;5.696;2023-05-18T03:33:03;12.0;48.2
78461;SHT31;67755;51.986;5.696;2023-05-18T03:35:34;12.0;48.3
78461;SHT31;67755;51.986;5.696;2023-05-18T03:38:06;11.9;48.3
78461;SHT31;67755;51.986;5.696;2023-05-18T03:40:35;11.9;48.5
78461;SHT31;67755;51.986;5.696;2023-05-18T03:43:05;11.9;48.7
78461;SHT31;67755;51.986;5.696;2023-05-18T03:45:35;11.9;48.7
78461;SHT31;67755;51.986;5.696;2023-05-18T03:48:05;11.9;48.1
78461;SHT31;67755;51.986;5.696;2023-05-18T03:50:34;11.9;48.5
78461;SHT31;67755;51.986;5.696;2023-05-18T03:53:04;11.9;48.5
78461;SHT31;67755;51.986;5.696;2023-05-18T03:55:33;11.9;48.5
78461;SHT31;67755;51.986;5.696;2023-05-18T03:58:03;11.9;48.8
78461;SHT31;67755;51.986;5.696;2023-05-18T04:00:34;11.9;48.4
78461;SHT31;67755;51.986;5.696;2023-05-18T04:03:06;11.8;48.8
78461;SHT31;67755;51.986;5.696;2023-05-18T04:05:40;11.8;48.9
78461;SHT31;67755;51.986;5.696;2023-05-18T04:08:10;11.8;49.0
78461;SHT31;67755;51.986;5.696;2023-05-18T04:10:41;11.8;49.1
78461;SHT31;67755;51.986;5.696;2023-05-18T04:13:12;11.8;49.0
78461;SHT31;67755;51.986;5.696;2023-05-18T04:15:42;11.8;49.1
78461;SHT31;67755;51.986;5.696;2023-05-18T04:18:12;11.8;48.9
78461;SHT31;67755;51.986;5.696;2023-05-18T04:20:41;11.8;49.2
78461;SHT31;67755;51.986;5.696;2023-05-18T04:23:12;11.8;48.9
78461;SHT31;67755;51.986;5.696;2023-05-18T04:25:44;11.8;48.7
78461;SHT31;67755;51.986;5.696;2023-05-18T04:28:15;11.8;49.0
78461;SHT31;67755;51.986;5.696;2023-05-18T04:30:45;11.8;49.3
78461;SHT31;67755;51.986;5.696;2023-05-18T04:33:15;11.8;49.7
78461;SHT31;67755;51.986;5.696;2023-05-18T04:35:44;11.8;49.9
78461;SHT31;67755;51.986;5.696;2023-05-18T04:38:14;11.8;49.9
78461;SHT31;67755;51.986;5.696;2023-05-18T04:40:43;11.8;49.4
78461;SHT31;67755;51.986;5.696;2023-05-18T04:43:13;11.8;49.5
78461;SHT31;67755;51.986;5.696;2023-05-18T04:45:44;11.8;49.0
78461;SHT31;67755;51.986;5.696;2023-05-18T04:48:16;11.8;49.5
78461;SHT31;67755;51.986;5.696;2023-05-18T04:50:47;11.8;49.0
78461;SHT31;67755;51.986;5.696;2023-05-18T04:53:20;11.8;48.3
78461;SHT31;67755;51.986;5.696;2023-05-18T04:55:51;11.8;48.1
78461;SHT31;67755;51.986;5.696;2023-05-18T04:58:21;11.8;48.8
78461;SHT31;67755;51.986;5.696;2023-05-18T05:00:52;11.8;49.1
78461;SHT31;67755;51.986;5.696;2023-05-18T05:03:23;11.9;49.9
78461;SHT31;67755;51.986;5.696;2023-05-18T05:05:53;11.9;49.7
78461;SHT31;67755;51.986;5.696;2023-05-18T05:08:22;11.9;49.4
78461;SHT31;67755;51.986;5.696;2023-05-18T05:10:52;11.9;48.9
78461;SHT31;67755;51.986;5.696;2023-05-18T05:13:22;11.9;49.2
78461;SHT31;67755;51.986;5.696;2023-05-18T05:15:51;11.9;48.9
78461;SHT31;67755;51.986;5.696;2023-05-18T05:18:21;11.9;48.5
78461;SHT31;67755;51.986;5.696;2023-05-18T05:20:51;11.9;48.8
78461;SHT31;67755;51.986;5.696;2023-05-18T05:23:22;12.0;49.2
78461;SHT31;67755;51.986;5.696;2023-05-18T05:25:52;12.0;50.0
78461;SHT31;67755;51.986;5.696;2023-05-18T05:28:22;12.0;49.8
78461;SHT31;67755;51.986;5.696;2023-05-18T05:30:51;12.0;48.9
78461;SHT31;67755;51.986;5.696;2023-05-18T05:33:23;12.0;49.7
78461;SHT31;67755;51.986;5.696;2023-05-18T05:35:52;12.0;49.3
78461;SHT31;67755;51.986;5.696;2023-05-18T05:38:22;12.0;48.5
78461;SHT31;67755;51.986;5.696;2023-05-18T05:40:52;12.1;49.1
78461;SHT31;67755;51.986;5.696;2023-05-18T05:43:22;12.1;48.7
78461;SHT31;67755;51.986;5.696;2023-05-18T05:45:53;12.1;48.3
78461;SHT31;67755;51.986;5.696;2023-05-18T05:48:22;12.1;49.3
78461;SHT31;67755;51.986;5.696;2023-05-18T05:50:52;12.1;49.3
78461;SHT31;67755;51.986;5.696;2023-05-18T05:53:22;12.2;50.0
78461;SHT31;67755;51.986;5.696;2023-05-18T05:55:51;12.2;49.1
78461;SHT31;67755;51.986;5.696;2023-05-18T05:58:21;12.2;49.2
78461;SHT31;67755;51.986;5.696;2023-05-18T06:00:51;12.2;49.6
78461;SHT31;67755;51.986;5.696;2023-05-18T06:03:20;12.3;48.8
78461;SHT31;67755;51.986;5.696;2023-05-18T06:05:51;12.3;51.1
78461;SHT31;67755;51.986;5.696;2023-05-18T06:08:22;12.3;48.6
78461;SHT31;67755;51.986;5.696;2023-05-18T06:10:54;12.4;49.9
78461;SHT31;67755;51.986;5.696;2023-05-18T06:13:24;12.4;48.4
78461;SHT31;67755;51.986;5.696;2023-05-18T06:15:53;12.5;49.8
78461;SHT31;67755;51.986;5.696;2023-05-18T06:18:23;12.5;48.4
78461;SHT31;67755;51.986;5.696;2023-05-18T06:20:56;12.5;47.9
78461;SHT31;67755;51.986;5.696;2023-05-18T06:23:25;12.6;48.2
78461;SHT31;67755;51.986;5.696;2023-05-18T06:25:55;12.6;48.2
78461;SHT31;67755;51.986;5.696;2023-05-18T06:28:24;12.7;48.1
78461;SHT31;67755;51.986;5.696;2023-05-18T06:30:56;12.7;47.1
78461;SHT31;67755;51.986;5.696;2023-05-18T06:33:29;12.8;47.0
78461;SHT31;67755;51.986;5.696;2023-05-18T06:36:00;12.8;46.8
78461;SHT31;67755;51.986;5.696;2023-05-18T06:38:30;12.9;45.6
78461;SHT31;67755;51.986;5.696;2023-05-18T06:40:59;12.9;45.3
78461;SHT31;67755;51.986;5.696;2023-05-18T06:43:29;12.9;45.8
78461;SHT31;67755;51.986;5.696;2023-05-18T06:45:59;13.0;45.5
78461;SHT31;67755;51.986;5.696;2023-05-18T06:48:29;13.0;46.8
78461;SHT31;67755;51.986;5.696;2023-05-18T06:50:58;13.0;45.7
78461;SHT31;67755;51.986;5.696;2023-05-18T06:53:28;13.0;47.0
78461;SHT31;67755;51.986;5.696;2023-05-18T06:55:58;13.1;45.8
78461;SHT31;67755;51.986;5.696;2023-05-18T06:58:28;13.1;46.9
78461;SHT31;67755;51.986;5.696;2023-05-18T07:00:57;13.2;47.6
78461;SHT31;67755;51.986;5.696;2023-05-18T07:03:27;13.3;45.5
78461;SHT31;67755;51.986;5.696;2023-05-18T07:05:56;13.3;45.6
78461;SHT31;67755;51.986;5.696;2023-05-18T07:08:26;13.4;45.2
78461;SHT31;67755;51.986;5.696;2023-05-18T07:10:55;13.4;46.3
78461;SHT31;67755;51.986;5.696;2023-05-18T07:13:25;13.5;47.4
78461;SHT31;67755;51.986;5.696;2023-05-18T07:15:55;13.6;46.0
78461;SHT31;67755;51.986;5.696;2023-05-18T07:18:25;13.7;45.9
78461;SHT31;67755;51.986;5.696;2023-05-18T07:20:55;13.7;44.7
78461;SHT31;67755;51.986;5.696;2023-05-18T07:23:24;13.8;44.3
78461;SHT31;67755;51.986;5.696;2023-05-18T07:25:55;13.9;43.5
78461;SHT31;67755;51.986;5.696;2023-05-18T07:28:27;13.9;43.9
78461;SHT31;67755;51.986;5.696;2023-05-18T07:30:57;14.0;44.7
78461;SHT31;67755;51.986;5.696;2023-05-18T07:33:28;14.1;43.9
78461;SHT31;67755;51.986;5.696;2023-05-18T07:35:58;14.1;43.7
78461;SHT31;67755;51.986;5.696;2023-05-18T07:38:27;14.2;45.6
78461;SHT31;67755;51.986;5.696;2023-05-18T07:40:57;14.3;43.6
78461;SHT31;67755;51.986;5.696;2023-05-18T07:43:27;14.4;44.2
78461;SHT31;67755;51.986;5.696;2023-05-18T07:45:57;14.6;43.7
78461;SHT31;67755;51.986;5.696;2023-05-18T07:48:27;14.7;43.4
78461;SHT31;67755;51.986;5.696;2023-05-18T07:50:57;14.8;44.6
78461;SHT31;67755;51.986;5.696;2023-05-18T07:53:26;15.0;43.5
78461;SHT31;67755;51.986;5.696;2023-05-18T07:55:56;15.2;44.6
78461;SHT31;67755;51.986;5.696;2023-05-18T07:58:26;15.3;43.0
78461;SHT31;67755;51.986;5.696;2023-05-18T08:00:56;15.4;43.3
78461;SHT31;67755;51.986;5.696;2023-05-18T08:03:26;15.6;41.7
78461;SHT31;67755;51.986;5.696;2023-05-18T08:05:58;15.7;41.3
78461;SHT31;67755;51.986;5.696;2023-05-18T08:08:28;15.8;40.6
78461;SHT31;67755;51.986;5.696;2023-05-18T08:10:58;15.8;40.7
78461;SHT31;67755;51.986;5.696;2023-05-18T08:13:27;15.9;39.8
78461;SHT31;67755;51.986;5.696;2023-05-18T08:15:59;15.9;39.5
78461;SHT31;67755;51.986;5.696;2023-05-18T08:18:28;15.9;40.4
78461;SHT31;67755;51.986;5.696;2023-05-18T08:20:58;16.0;40.9
78461;SHT31;67755;51.986;5.696;2023-05-18T08:23:30;16.0;40.5
78461;SHT31;67755;51.986;5.696;2023-05-18T08:26:00;16.0;39.7
78461;SHT31;67755;51.986;5.696;2023-05-18T08:28:30;16.1;40.4
78461;SHT31;67755;51.986;5.696;2023-05-18T08:31:00;16.1;40.4
78461;SHT31;67755;51.986;5.696;2023-05-18T08:33:29;16.1;38.8
78461;SHT31;67755;51.986;5.696;2023-05-18T08:36:01;16.1;40.4
78461;SHT31;67755;51.986;5.696;2023-05-18T08:38:31;16.2;38.0
78461;SHT31;67755;51.986;5.696;2023-05-18T08:41:09;16.2;38.2
78461;SHT31;67755;51.986;5.696;2023-05-18T08:43:45;16.2;37.7
78461;SHT31;67755;51.986;5.696;2023-05-18T08:46:19;16.2;40.5
78461;SHT31;67755;51.986;5.696;2023-05-18T08:48:51;16.3;39.7
78461;SHT31;67755;51.986;5.696;2023-05-18T08:51:21;16.3;39.5
78461;SHT31;67755;51.986;5.696;2023-05-18T08:53:53;16.3;38.8
78461;SHT31;67755;51.986;5.696;2023-05-18T08:56:24;16.4;38.0
78461;SHT31;67755;51.986;5.696;2023-05-18T08:58:56;16.4;38.9
78461;SHT31;67755;51.986;5.696;2023-05-18T09:01:26;16.4;39.2
78461;SHT31;67755;51.986;5.696;2023-05-18T09:03:57;16.5;38.7
78461;SHT31;67755;51.986;5.696;2023-05-18T09:06:27;16.5;39.2
78461;SHT31;67755;51.986;5.696;2023-05-18T09:08:57;16.6;38.1
78461;SHT31;67755;51.986;5.696;2023-05-18T09:11:34;16.7;39.0
78461;SHT31;67755;51.986;5.696;2023-05-18T09:14:03;16.7;38.1
78461;SHT31;67755;51.986;5.696;2023-05-18T09:16:35;16.8;39.5
78461;SHT31;67755;51.986;5.696;2023-05-18T09:19:05;16.9;37.9
78461;SHT31;67755;51.986;5.696;2023-05-18T09:21:36;16.9;36.9
78461;SHT31;67755;51.986;5.696;2023-05-18T09:24:07;17.0;36.3
78461;SHT31;67755;51.986;5.696;2023-05-18T09:26:40;17.0;36.6
78461;SHT31;67755;51.986;5.696;2023-05-18T09:29:17;17.0;37.7
78461;SHT31;67755;51.986;5.696;2023-05-18T09:31:47;17.0;39.5
78461;SHT31;67755;51.986;5.696;2023-05-18T09:34:17;17.1;39.1
78461;SHT31;67755;51.986;5.696;2023-05-18T09:36:49;17.1;37.7
78461;SHT31;67755;51.986;5.696;2023-05-18T09:39:20;17.2;38.0
78461;SHT31;67755;51.986;5.696;2023-05-18T09:41:55;17.3;37.7
78461;SHT31;67755;51.986;5.696;2023-05-18T09:44:30;17.3;36.6
78461;SHT31;67755;51.986;5.696;2023-05-18T09:47:01;17.4;36.5
78461;SHT31;67755;51.986;5.696;2023-05-18T09:49:30;17.4;37.1
78461;SHT31;67755;51.986;5.696;2023-05-18T09:52:00;17.5;35.6
78461;SHT31;67755;51.986;5.696;2023-05-18T09:54:33;17.6;38.0
78461;SHT31;67755;51.986;5.696;2023-05-18T09:57:04;17.6;37.2
78461;SHT31;67755;51.986;5.696;2023-05-18T09:59:34;17.7;38.0
78461;SHT31;67755;51.986;5.696;2023-05-18T10:02:05;17.8;36.2
78461;SHT31;67755;51.986;5.696;2023-05-18T10:04:40;17.9;37.6
78461;SHT31;67755;51.986;5.696;2023-05-18T10:07:11;18.0;36.3
78461;SHT31;67755;51.986;5.696;2023-05-18T10:09:43;18.1;35.5
78461;SHT31;67755;51.986;5.696;2023-05-18T10:12:16;18.2;36.6
78461;SHT31;67755;51.986;5.696;2023-05-18T10:14:48;18.2;34.4
78461;SHT31;67755;51.986;5.696;2023-05-18T10:17:19;18.3;35.1
78461;SHT31;67755;51.986;5.696;2023-05-18T10:19:54;18.4;35.8
78461;SHT31;67755;51.986;5.696;2023-05-18T10:22:26;18.5;34.0
78461;SHT31;67755;51.986;5.696;2023-05-18T10:24:58;18.6;35.3
78461;SHT31;67755;51.986;5.696;2023-05-18T10:27:28;18.6;33.2
78461;SHT31;67755;51.986;5.696;2023-05-18T10:29:59;18.7;34.2
78461;SHT31;67755;51.986;5.696;2023-05-18T10:32:34;18.7;35.6
78461;SHT31;67755;51.986;5.696;2023-05-18T10:35:05;18.8;34.9
78461;SHT31;67755;51.986;5.696;2023-05-18T10:37:39;18.9;34.3
78461;SHT31;67755;51.986;5.696;2023-05-18T10:40:12;18.9;34.1
78461;SHT31;67755;51.986;5.696;2023-05-18T10:42:44;19.0;34.8
78461;SHT31;67755;51.986;5.696;2023-05-18T10:45:15;19.0;34.7
78461;SHT31;67755;51.986;5.696;2023-05-18T10:47:47;19.1;34.9
78461;SHT31;67755;51.986;5.696;2023-05-18T10:50:21;19.2;33.0
78461;SHT31;67755;51.986;5.696;2023-05-18T10:52:52;19.2;32.9
78461;SHT31;67755;51.986;5.696;2023-05-18T10:55:22;19.2;33.8
78461;SHT31;67755;51.986;5.696;2023-05-18T10:57:57;19.3;33.3
78461;SHT31;67755;51.986;5.696;2023-05-18T11:00:27;19.3;33.7
78461;SHT31;67755;51.986;5.696;2023-05-18T11:03:00;19.3;35.3
78461;SHT31;67755;51.986;5.696;2023-05-18T11:05:30;19.3;33.8
78461;SHT31;67755;51.986;5.696;2023-05-18T11:08:04;19.3;33.2
78461;SHT31;67755;51.986;5.696;2023-05-18T11:10:41;19.3;33.8
78461;SHT31;67755;51.986;5.696;2023-05-18T11:13:14;19.3;33.5
78461;SHT31;67755;51.986;5.696;2023-05-18T11:16:02;19.3;33.6
78461;SHT31;67755;51.986;5.696;2023-05-18T11:18:46;19.4;34.2
78461;SHT31;67755;51.986;5.696;2023-05-18T11:21:20;19.4;33.8
78461;SHT31;67755;51.986;5.696;2023-05-18T11:24:24;19.4;33.6
78461;SHT31;67755;51.986;5.696;2023-05-18T11:26:56;19.4;32.4
78461;SHT31;67755;51.986;5.696;2023-05-18T11:29:33;19.5;32.7
78461;SHT31;67755;51.986;5.696;2023-05-18T11:32:03;19.5;32.9
78461;SHT31;67755;51.986;5.696;2023-05-18T11:34:36;19.5;33.3
78461;SHT31;67755;51.986;5.696;2023-05-18T11:37:08;19.6;33.5
78461;SHT31;67755;51.986;5.696;2023-05-18T11:39:39;19.6;31.5
78461;SHT31;67755;51.986;5.696;2023-05-18T11:42:11;19.7;33.8
78461;SHT31;67755;51.986;5.696;2023-05-18T11:44:44;19.7;31.6
78461;SHT31;67755;51.986;5.696;2023-05-18T11:47:18;19.8;34.3
78461;SHT31;67755;51.986;5.696;2023-05-18T11:49:48;19.8;34.1
78461;SHT31;67755;51.986;5.696;2023-05-18T11:52:21;19.9;34.0
78461;SHT31;67755;51.986;5.696;2023-05-18T11:54:52;20.0;32.5
78461;SHT31;67755;51.986;5.696;2023-05-18T11:57:24;20.0;33.4
78461;SHT31;67755;51.986;5.696;2023-05-18T11:59:56;20.0;32.5
78461;SHT31;67755;51.986;5.696;2023-05-18T12:02:30;20.1;32.3
78461;SHT31;67755;51.986;5.696;2023-05-18T12:05:04;20.2;34.1
78461;SHT31;67755;51.986;5.696;2023-05-18T12:07:36;20.2;33.2
78461;SHT31;67755;51.986;5.696;2023-05-18T12:10:10;20.3;31.1
78461;SHT31;67755;51.986;5.696;2023-05-18T12:12:41;20.3;33.3
78461;SHT31;67755;51.986;5.696;2023-05-18T12:15:11;20.4;31.5
78461;SHT31;67755;51.986;5.696;2023-05-18T12:17:42;20.4;30.7
78461;SHT31;67755;51.986;5.696;2023-05-18T12:20:14;20.4;32.7
78461;SHT31;67755;51.986;5.696;2023-05-18T12:22:45;20.5;32.5
78461;SHT31;67755;51.986;5.696;2023-05-18T12:25:16;20.5;32.0
78461;SHT31;67755;51.986;5.696;2023-05-18T12:27:46;20.6;31.8
78461;SHT31;67755;51.986;5.696;2023-05-18T12:30:19;20.6;30.9
78461;SHT31;67755;51.986;5.696;2023-05-18T12:32:51;20.7;30.7
78461;SHT31;67755;51.986;5.696;2023-05-18T12:35:23;20.7;31.2
78461;SHT31;67755;51.986;5.696;2023-05-18T12:37:54;20.8;31.7
78461;SHT31;67755;51.986;5.696;2023-05-18T12:40:25;20.8;30.8
78461;SHT31;67755;51.986;5.696;2023-05-18T12:42:56;20.8;31.3
78461;SHT31;67755;51.986;5.696;2023-05-18T12:45:27;20.8;31.1
78461;SHT31;67755;51.986;5.696;2023-05-18T12:48:02;20.9;29.1
78461;SHT31;67755;51.986;5.696;2023-05-18T12:50:33;20.9;29.5
78461;SHT31;67755;51.986;5.696;2023-05-18T12:53:07;20.9;29.9
78461;SHT31;67755;51.986;5.696;2023-05-18T12:55:38;20.9;31.2
78461;SHT31;67755;51.986;5.696;2023-05-18T12:58:11;20.9;30.9
78461;SHT31;67755;51.986;5.696;2023-05-18T13:00:45;20.9;31.2
78461;SHT31;67755;51.986;5.696;2023-05-18T13:03:17;20.9;30.5
78461;SHT31;67755;51.986;5.696;2023-05-18T13:06:04;21.0;29.7
78461;SHT31;67755;51.986;5.696;2023-05-18T13:08:36;21.0;31.3
78461;SHT31;67755;51.986;5.696;2023-05-18T13:11:07;21.0;31.1
78461;SHT31;67755;51.986;5.696;2023-05-18T13:13:58;21.1;32.1
78461;SHT31;67755;51.986;5.696;2023-05-18T13:16:28;21.1;31.4
78461;SHT31;67755;51.986;5.696;2023-05-18T13:19:02;21.2;30.6
78461;SHT31;67755;51.986;5.696;2023-05-18T13:21:32;21.2;30.8
78461;SHT31;67755;51.986;5.696;2023-05-18T13:24:03;21.2;31.8
78461;SHT31;67755;51.986;5.696;2023-05-18T13:26:33;21.3;30.2
78461;SHT31;67755;51.986;5.696;2023-05-18T13:29:02;21.3;31.0
78461;SHT31;67755;51.986;5.696;2023-05-18T13:31:33;21.3;31.0
78461;SHT31;67755;51.986;5.696;2023-05-18T13:34:03;21.4;31.6
78461;SHT31;67755;51.986;5.696;2023-05-18T13:36:33;21.4;30.8
78461;SHT31;67755;51.986;5.696;2023-05-18T13:39:03;21.4;31.3
78461;SHT31;67755;51.986;5.696;2023-05-18T13:41:34;21.4;30.0
78461;SHT31;67755;51.986;5.696;2023-05-18T13:44:04;21.5;30.0
78461;SHT31;67755;51.986;5.696;2023-05-18T13:46:33;21.5;29.9
78461;SHT31;67755;51.986;5.696;2023-05-18T13:49:05;21.5;29.5
78461;SHT31;67755;51.986;5.696;2023-05-18T13:51:35;21.5;30.0
78461;SHT31;67755;51.986;5.696;2023-05-18T13:54:05;21.5;29.5
78461;SHT31;67755;51.986;5.696;2023-05-18T13:56:34;21.5;29.8
78461;SHT31;67755;51.986;5.696;2023-05-18T13:59:04;21.5;30.8
78461;SHT31;67755;51.986;5.696;2023-05-18T14:01:33;21.5;29.8
78461;SHT31;67755;51.986;5.696;2023-05-18T14:04:03;21.5;30.6
78461;SHT31;67755;51.986;5.696;2023-05-18T14:06:33;21.5;30.7
78461;SHT31;67755;51.986;5.696;2023-05-18T14:09:03;21.5;31.0
78461;SHT31;67755;51.986;5.696;2023-05-18T14:11:33;21.5;30.6
78461;SHT31;67755;51.986;5.696;2023-05-18T14:14:04;21.5;30.5
78461;SHT31;67755;51.986;5.696;2023-05-18T14:16:34;21.5;30.3
78461;SHT31;67755;51.986;5.696;2023-05-18T14:19:06;21.5;29.8
78461;SHT31;67755;51.986;5.696;2023-05-18T14:21:36;21.5;30.1
78461;SHT31;67755;51.986;5.696;2023-05-18T14:24:06;21.5;30.3
78461;SHT31;67755;51.986;5.696;2023-05-18T14:26:40;21.4;29.8
78461;SHT31;67755;51.986;5.696;2023-05-18T14:29:10;21.4;30.3
78461;SHT31;67755;51.986;5.696;2023-05-18T14:31:39;21.4;30.5
78461;SHT31;67755;51.986;5.696;2023-05-18T14:34:09;21.4;31.8
78461;SHT31;67755;51.986;5.696;2023-05-18T14:36:38;21.4;31.4
78461;SHT31;67755;51.986;5.696;2023-05-18T14:39:08;21.4;31.5
78461;SHT31;67755;51.986;5.696;2023-05-18T14:41:38;21.5;31.4
78461;SHT31;67755;51.986;5.696;2023-05-18T14:44:07;21.5;30.5
78461;SHT31;67755;51.986;5.696;2023-05-18T14:46:37;21.5;30.3
78461;SHT31;67755;51.986;5.696;2023-05-18T14:49:07;21.5;30.8
78461;SHT31;67755;51.986;5.696;2023-05-18T14:51:37;21.5;30.7
78461;SHT31;67755;51.986;5.696;2023-05-18T14:54:07;21.5;31.9
78461;SHT31;67755;51.986;5.696;2023-05-18T14:56:37;21.5;31.8
78461;SHT31;67755;51.986;5.696;2023-05-18T14:59:07;21.5;31.8
78461;SHT31;67755;51.986;5.696;2023-05-18T15:01:37;21.5;30.8
78461;SHT31;67755;51.986;5.696;2023-05-18T15:04:06;21.5;31.2
78461;SHT31;67755;51.986;5.696;2023-05-18T15:06:36;21.5;30.3
78461;SHT31;67755;51.986;5.696;2023-05-18T15:09:05;21.5;31.2
78461;SHT31;67755;51.986;5.696;2023-05-18T15:11:38;21.5;30.5
78461;SHT31;67755;51.986;5.696;2023-05-18T15:14:07;21.5;30.5
78461;SHT31;67755;51.986;5.696;2023-05-18T15:16:37;21.5;30.2
78461;SHT31;67755;51.986;5.696;2023-05-18T15:19:07;21.4;30.3
78461;SHT31;67755;51.986;5.696;2023-05-18T15:21:36;21.4;30.2
78461;SHT31;67755;51.986;5.696;2023-05-18T15:24:06;21.3;31.2
78461;SHT31;67755;51.986;5.696;2023-05-18T15:26:36;21.3;31.1
78461;SHT31;67755;51.986;5.696;2023-05-18T15:29:06;21.2;30.4
78461;SHT31;67755;51.986;5.696;2023-05-18T15:31:35;21.2;30.4
78461;SHT31;67755;51.986;5.696;2023-05-18T15:34:06;21.2;30.8
78461;SHT31;67755;51.986;5.696;2023-05-18T15:36:36;21.1;30.8
78461;SHT31;67755;51.986;5.696;2023-05-18T15:39:05;21.1;31.1
78461;SHT31;67755;51.986;5.696;2023-05-18T15:41:35;21.1;31.7
78461;SHT31;67755;51.986;5.696;2023-05-18T15:44:05;21.1;31.2
78461;SHT31;67755;51.986;5.696;2023-05-18T15:46:35;21.0;31.3
78461;SHT31;67755;51.986;5.696;2023-05-18T15:49:06;21.0;31.2
78461;SHT31;67755;51.986;5.696;2023-05-18T15:51:36;21.0;32.7
78461;SHT31;67755;51.986;5.696;2023-05-18T15:54:07;21.0;32.6
78461;SHT31;67755;51.986;5.696;2023-05-18T15:56:39;20.9;31.5
78461;SHT31;67755;51.986;5.696;2023-05-18T15:59:09;20.9;31.5
78461;SHT31;67755;51.986;5.696;2023-05-18T16:01:40;20.9;31.7
78461;SHT31;67755;51.986;5.696;2023-05-18T16:04:10;20.8;30.9
78461;SHT31;67755;51.986;5.696;2023-05-18T16:06:39;20.8;31.3
78461;SHT31;67755;51.986;5.696;2023-05-18T16:09:09;20.8;31.5
78461;SHT31;67755;51.986;5.696;2023-05-18T16:11:40;20.8;31.9
78461;SHT31;67755;51.986;5.696;2023-05-18T16:14:10;20.7;32.0
78461;SHT31;67755;51.986;5.696;2023-05-18T16:16:39;20.7;31.7
78461;SHT31;67755;51.986;5.696;2023-05-18T16:19:09;20.7;31.1
78461;SHT31;67755;51.986;5.696;2023-05-18T16:21:39;20.7;32.2
78461;SHT31;67755;51.986;5.696;2023-05-18T16:24:09;20.6;32.3
78461;SHT31;67755;51.986;5.696;2023-05-18T16:26:38;20.6;31.5